OMDB/DXB METAR and TAF weather

Enter ICAO airport designator
Station Type Date Time Source
OMDB METAR 2018/12/18 19:00 UTC NOAA

OMDB 181900Z 32009KT CAVOK 24/12 Q1020 NOSIG


Station Type Date Time Source
OMDB Decoded METAR 2018/12/18 19:00 UTC NOAA

Dubai International Airport, United Arab Emirates (OMDB) 25-15N 055-20E 5M
Dec 18, 2018 - 02:00 PM EST / 2018.12.18 1900 UTC
Wind: from the NW (320 degrees) at 10 MPH (9 KT):0
Visibility: greater than 7 mile(s):0
Temperature: 75 F (24 C)
Dew Point: 53 F (12 C)
Relative Humidity: 46%
Pressure (altimeter): 30.12 in. Hg (1020 hPa)
ob: OMDB 181900Z 32009KT CAVOK 24/12 Q1020 NOSIG
cycle: 19

Station Type Date Time Source
OMDB TAF 2018/12/18 18:02 UTC NOAA

TAF OMDB 181651Z 1818/2000 14007KT 9999 FEW030
BECMG 1908/1910 28010KT
BECMG 1915/1917 13005KT


Example: see airport list